sensor_id;sensor_type;location;lat;lon;timestamp;pressure;altitude;pressure_sealevel;temperature;humidity
10464;BME280;5279;42.048;24.638;2024-01-11T00:01:46;98562.72;;;-2.41;100.00
10464;BME280;5279;42.048;24.638;2024-01-11T00:04:13;98557.84;;;-2.53;100.00
10464;BME280;5279;42.048;24.638;2024-01-11T00:06:41;98555.25;;;-2.53;100.00
10464;BME280;5279;42.048;24.638;2024-01-11T00:09:08;98554.09;;;-2.43;100.00
10464;BME280;5279;42.048;24.638;2024-01-11T00:11:35;98561.56;;;-2.63;100.00
10464;BME280;5279;42.048;24.638;2024-01-11T00:14:03;98558.19;;;-2.65;100.00
10464;BME280;5279;42.048;24.638;2024-01-11T00:16:29;98561.50;;;-2.60;100.00
10464;BME280;5279;42.048;24.638;2024-01-11T00:18:56;98551.59;;;-2.78;100.00
10464;BME280;5279;42.048;24.638;2024-01-11T00:21:23;98544.63;;;-2.76;100.00
10464;BME280;5279;42.048;24.638;2024-01-11T00:23:50;98542.69;;;-2.68;100.00
10464;BME280;5279;42.048;24.638;2024-01-11T00:26:17;98543.50;;;-2.66;100.00
10464;BME280;5279;42.048;24.638;2024-01-11T00:28:43;98527.00;;;-2.63;100.00
10464;BME280;5279;42.048;24.638;2024-01-11T00:31:12;98532.06;;;-2.59;100.00
10464;BME280;5279;42.048;24.638;2024-01-11T00:33:39;98528.47;;;-2.55;100.00
10464;BME280;5279;42.048;24.638;2024-01-11T00:36:05;98531.25;;;-2.61;100.00
10464;BME280;5279;42.048;24.638;2024-01-11T00:38:32;98524.47;;;-2.65;100.00
10464;BME280;5279;42.048;24.638;2024-01-11T00:40:59;98514.88;;;-2.63;100.00
10464;BME280;5279;42.048;24.638;2024-01-11T00:43:26;98508.91;;;-2.66;100.00
10464;BME280;5279;42.048;24.638;2024-01-11T00:45:53;98503.47;;;-2.57;100.00
10464;BME280;5279;42.048;24.638;2024-01-11T00:48:21;98502.50;;;-2.53;100.00
10464;BME280;5279;42.048;24.638;2024-01-11T00:50:47;98478.66;;;-2.66;100.00
10464;BME280;5279;42.048;24.638;2024-01-11T00:53:14;98497.34;;;-2.55;100.00
10464;BME280;5279;42.048;24.638;2024-01-11T00:55:41;98493.78;;;-2.51;100.00
10464;BME280;5279;42.048;24.638;2024-01-11T00:58:08;98492.50;;;-2.67;100.00
10464;BME280;5279;42.048;24.638;2024-01-11T01:00:35;98498.84;;;-2.77;100.00
10464;BME280;5279;42.048;24.638;2024-01-11T01:03:02;98494.78;;;-2.87;100.00
10464;BME280;5279;42.048;24.638;2024-01-11T01:05:30;98489.69;;;-2.90;100.00
10464;BME280;5279;42.048;24.638;2024-01-11T01:07:57;98493.16;;;-2.91;100.00
10464;BME280;5279;42.048;24.638;2024-01-11T01:10:23;98493.09;;;-2.88;100.00
10464;BME280;5279;42.048;24.638;2024-01-11T01:12:50;98498.09;;;-2.82;100.00
10464;BME280;5279;42.048;24.638;2024-01-11T01:15:17;98494.63;;;-2.81;100.00
10464;BME280;5279;42.048;24.638;2024-01-11T01:17:44;98483.63;;;-2.89;100.00
10464;BME280;5279;42.048;24.638;2024-01-11T01:20:11;98476.66;;;-2.89;100.00
10464;BME280;5279;42.048;24.638;2024-01-11T01:22:39;98481.19;;;-2.95;100.00
10464;BME280;5279;42.048;24.638;2024-01-11T01:25:06;98472.66;;;-3.00;100.00
10464;BME280;5279;42.048;24.638;2024-01-11T01:27:33;98467.28;;;-3.25;100.00
10464;BME280;5279;42.048;24.638;2024-01-11T01:30:00;98465.19;;;-3.11;100.00
10464;BME280;5279;42.048;24.638;2024-01-11T01:32:27;98469.59;;;-3.14;100.00
10464;BME280;5279;42.048;24.638;2024-01-11T01:34:53;98463.22;;;-3.35;100.00
10464;BME280;5279;42.048;24.638;2024-01-11T01:37:20;98472.59;;;-3.31;100.00
10464;BME280;5279;42.048;24.638;2024-01-11T01:39:47;98468.34;;;-3.32;100.00
10464;BME280;5279;42.048;24.638;2024-01-11T01:42:14;98461.59;;;-3.39;100.00
10464;BME280;5279;42.048;24.638;2024-01-11T01:44:41;98465.69;;;-3.31;100.00
10464;BME280;5279;42.048;24.638;2024-01-11T01:47:08;98461.13;;;-3.21;100.00
10464;BME280;5279;42.048;24.638;2024-01-11T01:49:37;98448.88;;;-3.14;100.00
10464;BME280;5279;42.048;24.638;2024-01-11T01:52:05;98452.25;;;-3.12;100.00
10464;BME280;5279;42.048;24.638;2024-01-11T01:54:33;98446.91;;;-3.06;100.00
10464;BME280;5279;42.048;24.638;2024-01-11T01:57:03;98445.06;;;-3.01;100.00
10464;BME280;5279;42.048;24.638;2024-01-11T01:59:31;98434.53;;;-2.95;100.00
10464;BME280;5279;42.048;24.638;2024-01-11T02:01:58;98439.72;;;-2.95;100.00
10464;BME280;5279;42.048;24.638;2024-01-11T02:04:25;98436.03;;;-2.88;100.00
10464;BME280;5279;42.048;24.638;2024-01-11T02:06:53;98440.25;;;-2.84;100.00
10464;BME280;5279;42.048;24.638;2024-01-11T02:09:20;98437.59;;;-2.83;100.00
10464;BME280;5279;42.048;24.638;2024-01-11T02:11:47;98439.28;;;-2.80;100.00
10464;BME280;5279;42.048;24.638;2024-01-11T02:14:16;98429.09;;;-2.86;100.00
10464;BME280;5279;42.048;24.638;2024-01-11T02:16:42;98424.66;;;-2.83;100.00
10464;BME280;5279;42.048;24.638;2024-01-11T02:19:12;98423.69;;;-2.79;100.00
10464;BME280;5279;42.048;24.638;2024-01-11T02:21:41;98425.31;;;-2.76;100.00
10464;BME280;5279;42.048;24.638;2024-01-11T02:24:10;98421.75;;;-2.72;100.00
10464;BME280;5279;42.048;24.638;2024-01-11T02:26:37;98423.22;;;-2.62;100.00
10464;BME280;5279;42.048;24.638;2024-01-11T02:29:24;98422.19;;;-2.56;100.00
10464;BME280;5279;42.048;24.638;2024-01-11T02:31:50;98424.09;;;-2.63;100.00
10464;BME280;5279;42.048;24.638;2024-01-11T02:34:18;98420.06;;;-2.73;100.00
10464;BME280;5279;42.048;24.638;2024-01-11T02:36:45;98420.53;;;-2.90;100.00
10464;BME280;5279;42.048;24.638;2024-01-11T02:39:13;98417.09;;;-2.90;100.00
10464;BME280;5279;42.048;24.638;2024-01-11T02:41:43;98424.16;;;-2.95;100.00
10464;BME280;5279;42.048;24.638;2024-01-11T02:44:10;98419.88;;;-2.98;100.00
10464;BME280;5279;42.048;24.638;2024-01-11T02:46:37;98412.06;;;-2.96;100.00
10464;BME280;5279;42.048;24.638;2024-01-11T02:49:04;98410.19;;;-2.91;100.00
10464;BME280;5279;42.048;24.638;2024-01-11T02:51:30;98408.44;;;-2.89;100.00
10464;BME280;5279;42.048;24.638;2024-01-11T02:53:57;98411.75;;;-2.86;100.00
10464;BME280;5279;42.048;24.638;2024-01-11T02:56:25;98409.09;;;-2.83;100.00
10464;BME280;5279;42.048;24.638;2024-01-11T02:58:52;98413.53;;;-2.86;100.00
10464;BME280;5279;42.048;24.638;2024-01-11T03:01:19;98405.34;;;-3.03;100.00
10464;BME280;5279;42.048;24.638;2024-01-11T03:03:46;98408.34;;;-3.18;100.00
10464;BME280;5279;42.048;24.638;2024-01-11T03:06:12;98403.09;;;-3.15;100.00
10464;BME280;5279;42.048;24.638;2024-01-11T03:08:39;98400.34;;;-3.09;100.00
10464;BME280;5279;42.048;24.638;2024-01-11T03:11:06;98399.69;;;-3.17;100.00
10464;BME280;5279;42.048;24.638;2024-01-11T03:13:34;98397.88;;;-3.14;100.00
10464;BME280;5279;42.048;24.638;2024-01-11T03:16:01;98398.56;;;-3.07;100.00
10464;BME280;5279;42.048;24.638;2024-01-11T03:18:27;98396.72;;;-3.04;100.00
10464;BME280;5279;42.048;24.638;2024-01-11T03:20:55;98393.47;;;-3.10;100.00
10464;BME280;5279;42.048;24.638;2024-01-11T03:23:22;98393.56;;;-3.13;100.00
10464;BME280;5279;42.048;24.638;2024-01-11T03:25:48;98385.81;;;-3.15;100.00
10464;BME280;5279;42.048;24.638;2024-01-11T03:28:15;98386.50;;;-3.08;100.00
10464;BME280;5279;42.048;24.638;2024-01-11T03:30:43;98390.63;;;-3.01;100.00
10464;BME280;5279;42.048;24.638;2024-01-11T03:33:10;98391.50;;;-3.02;100.00
10464;BME280;5279;42.048;24.638;2024-01-11T03:35:37;98388.22;;;-3.07;100.00
10464;BME280;5279;42.048;24.638;2024-01-11T03:38:05;98384.44;;;-2.97;100.00
10464;BME280;5279;42.048;24.638;2024-01-11T03:40:32;98386.16;;;-2.96;100.00
10464;BME280;5279;42.048;24.638;2024-01-11T03:42:59;98388.03;;;-3.01;100.00
10464;BME280;5279;42.048;24.638;2024-01-11T03:45:25;98377.50;;;-2.95;100.00
10464;BME280;5279;42.048;24.638;2024-01-11T03:47:53;98376.31;;;-3.16;100.00
10464;BME280;5279;42.048;24.638;2024-01-11T03:50:20;98366.28;;;-3.28;100.00
10464;BME280;5279;42.048;24.638;2024-01-11T03:52:47;98369.47;;;-3.18;100.00
10464;BME280;5279;42.048;24.638;2024-01-11T03:55:14;98375.94;;;-3.33;100.00
10464;BME280;5279;42.048;24.638;2024-01-11T03:57:40;98366.34;;;-3.29;100.00
10464;BME280;5279;42.048;24.638;2024-01-11T04:00:08;98366.44;;;-3.33;100.00
10464;BME280;5279;42.048;24.638;2024-01-11T04:02:35;98361.88;;;-3.24;100.00
10464;BME280;5279;42.048;24.638;2024-01-11T04:05:04;98365.03;;;-3.13;100.00
10464;BME280;5279;42.048;24.638;2024-01-11T04:07:31;98364.13;;;-3.12;100.00
10464;BME280;5279;42.048;24.638;2024-01-11T04:09:57;98357.63;;;-3.25;100.00
10464;BME280;5279;42.048;24.638;2024-01-11T04:12:24;98361.94;;;-3.26;100.00
10464;BME280;5279;42.048;24.638;2024-01-11T04:14:51;98358.03;;;-3.41;100.00
10464;BME280;5279;42.048;24.638;2024-01-11T04:17:17;98349.16;;;-3.32;100.00
10464;BME280;5279;42.048;24.638;2024-01-11T04:19:44;98350.81;;;-3.29;100.00
10464;BME280;5279;42.048;24.638;2024-01-11T04:22:12;98356.69;;;-3.24;100.00
10464;BME280;5279;42.048;24.638;2024-01-11T04:24:42;98352.00;;;-3.10;100.00
10464;BME280;5279;42.048;24.638;2024-01-11T04:27:10;98352.16;;;-3.16;100.00
10464;BME280;5279;42.048;24.638;2024-01-11T04:29:37;98351.16;;;-3.12;100.00
10464;BME280;5279;42.048;24.638;2024-01-11T04:32:04;98350.22;;;-3.10;100.00
10464;BME280;5279;42.048;24.638;2024-01-11T04:34:30;98352.25;;;-3.19;100.00
10464;BME280;5279;42.048;24.638;2024-01-11T04:36:57;98359.94;;;-3.16;100.00
10464;BME280;5279;42.048;24.638;2024-01-11T04:39:25;98351.06;;;-3.40;100.00
10464;BME280;5279;42.048;24.638;2024-01-11T04:41:52;98361.16;;;-3.29;100.00
10464;BME280;5279;42.048;24.638;2024-01-11T04:44:19;98349.00;;;-3.27;100.00
10464;BME280;5279;42.048;24.638;2024-01-11T04:46:45;98351.34;;;-3.18;100.00
10464;BME280;5279;42.048;24.638;2024-01-11T04:49:12;98356.66;;;-3.23;100.00
10464;BME280;5279;42.048;24.638;2024-01-11T04:51:39;98346.47;;;-3.29;100.00
10464;BME280;5279;42.048;24.638;2024-01-11T04:54:06;98347.00;;;-3.18;100.00
10464;BME280;5279;42.048;24.638;2024-01-11T04:56:34;98350.50;;;-3.19;100.00
10464;BME280;5279;42.048;24.638;2024-01-11T04:59:00;98355.22;;;-3.33;100.00
10464;BME280;5279;42.048;24.638;2024-01-11T05:01:27;98343.75;;;-3.24;100.00
10464;BME280;5279;42.048;24.638;2024-01-11T05:03:54;98340.84;;;-3.45;100.00
10464;BME280;5279;42.048;24.638;2024-01-11T05:06:22;98336.56;;;-3.46;100.00
10464;BME280;5279;42.048;24.638;2024-01-11T05:08:51;98335.50;;;-3.39;100.00
10464;BME280;5279;42.048;24.638;2024-01-11T05:11:18;98330.41;;;-3.42;100.00
10464;BME280;5279;42.048;24.638;2024-01-11T05:13:46;98339.75;;;-3.36;100.00
10464;BME280;5279;42.048;24.638;2024-01-11T05:16:21;98323.25;;;-3.34;100.00
10464;BME280;5279;42.048;24.638;2024-01-11T05:18:48;98332.59;;;-3.26;100.00
10464;BME280;5279;42.048;24.638;2024-01-11T05:21:15;98330.16;;;-3.33;100.00
10464;BME280;5279;42.048;24.638;2024-01-11T05:23:41;98324.19;;;-3.35;100.00
10464;BME280;5279;42.048;24.638;2024-01-11T05:26:08;98321.50;;;-3.32;100.00
10464;BME280;5279;42.048;24.638;2024-01-11T05:28:35;98320.66;;;-3.32;100.00
10464;BME280;5279;42.048;24.638;2024-01-11T05:31:08;98324.81;;;-3.26;100.00
10464;BME280;5279;42.048;24.638;2024-01-11T05:33:35;98323.00;;;-3.24;100.00
10464;BME280;5279;42.048;24.638;2024-01-11T05:36:02;98321.59;;;-3.35;100.00
10464;BME280;5279;42.048;24.638;2024-01-11T05:38:29;98323.00;;;-3.24;100.00
10464;BME280;5279;42.048;24.638;2024-01-11T05:40:55;98329.81;;;-3.20;100.00
10464;BME280;5279;42.048;24.638;2024-01-11T05:43:22;98319.09;;;-3.08;100.00
10464;BME280;5279;42.048;24.638;2024-01-11T05:45:49;98317.31;;;-3.06;100.00
10464;BME280;5279;42.048;24.638;2024-01-11T05:48:18;98322.41;;;-3.03;100.00
10464;BME280;5279;42.048;24.638;2024-01-11T05:50:44;98325.06;;;-3.05;100.00
10464;BME280;5279;42.048;24.638;2024-01-11T05:53:11;98326.63;;;-3.01;100.00
10464;BME280;5279;42.048;24.638;2024-01-11T05:55:39;98316.69;;;-3.14;100.00
10464;BME280;5279;42.048;24.638;2024-01-11T05:58:05;98319.47;;;-3.22;100.00
10464;BME280;5279;42.048;24.638;2024-01-11T06:00:32;98318.75;;;-3.25;100.00
10464;BME280;5279;42.048;24.638;2024-01-11T06:02:59;98310.03;;;-3.23;100.00
10464;BME280;5279;42.048;24.638;2024-01-11T06:05:27;98312.38;;;-3.15;100.00
10464;BME280;5279;42.048;24.638;2024-01-11T06:07:54;98307.78;;;-3.06;100.00
10464;BME280;5279;42.048;24.638;2024-01-11T06:10:20;98311.84;;;-2.97;100.00
10464;BME280;5279;42.048;24.638;2024-01-11T06:12:47;98308.19;;;-2.90;100.00
10464;BME280;5279;42.048;24.638;2024-01-11T06:15:14;98314.72;;;-2.77;100.00
10464;BME280;5279;42.048;24.638;2024-01-11T06:17:40;98304.25;;;-2.74;100.00
10464;BME280;5279;42.048;24.638;2024-01-11T06:20:08;98304.19;;;-2.72;100.00
10464;BME280;5279;42.048;24.638;2024-01-11T06:22:37;98302.75;;;-2.81;100.00
10464;BME280;5279;42.048;24.638;2024-01-11T06:25:04;98306.41;;;-2.88;100.00
10464;BME280;5279;42.048;24.638;2024-01-11T06:27:31;98301.88;;;-2.82;100.00
10464;BME280;5279;42.048;24.638;2024-01-11T06:29:58;98307.66;;;-2.72;100.00
10464;BME280;5279;42.048;24.638;2024-01-11T06:32:25;98302.28;;;-2.66;100.00
10464;BME280;5279;42.048;24.638;2024-01-11T06:34:51;98308.97;;;-2.59;100.00
10464;BME280;5279;42.048;24.638;2024-01-11T06:37:18;98298.59;;;-2.59;100.00
10464;BME280;5279;42.048;24.638;2024-01-11T06:39:46;98298.97;;;-2.43;100.00
10464;BME280;5279;42.048;24.638;2024-01-11T06:42:13;98299.22;;;-1.98;100.00
10464;BME280;5279;42.048;24.638;2024-01-11T06:44:39;98289.47;;;-1.67;100.00
10464;BME280;5279;42.048;24.638;2024-01-11T06:47:06;98288.16;;;-1.29;100.00
10464;BME280;5279;42.048;24.638;2024-01-11T06:49:33;98296.56;;;-0.99;100.00
10464;BME280;5279;42.048;24.638;2024-01-11T06:52:00;98293.84;;;-0.73;100.00
10464;BME280;5279;42.048;24.638;2024-01-11T06:54:28;98284.03;;;-0.45;99.02
10464;BME280;5279;42.048;24.638;2024-01-11T06:56:57;98288.03;;;-0.15;98.52
10464;BME280;5279;42.048;24.638;2024-01-11T06:59:23;98285.50;;;-0.16;97.84
10464;BME280;5279;42.048;24.638;2024-01-11T07:01:50;98291.84;;;0.19;94.34
10464;BME280;5279;42.048;24.638;2024-01-11T07:04:17;98286.13;;;0.31;88.75
10464;BME280;5279;42.048;24.638;2024-01-11T07:06:44;98284.63;;;0.45;89.89
10464;BME280;5279;42.048;24.638;2024-01-11T07:09:10;98283.72;;;0.67;92.44
10464;BME280;5279;42.048;24.638;2024-01-11T07:11:37;98282.69;;;0.89;88.31
10464;BME280;5279;42.048;24.638;2024-01-11T07:14:05;98282.28;;;1.17;88.81
10464;BME280;5279;42.048;24.638;2024-01-11T07:16:32;98286.00;;;1.49;87.34
10464;BME280;5279;42.048;24.638;2024-01-11T07:18:59;98283.47;;;1.83;86.57
10464;BME280;5279;42.048;24.638;2024-01-11T07:21:26;98280.19;;;2.14;84.92
10464;BME280;5279;42.048;24.638;2024-01-11T07:23:57;98288.44;;;2.58;85.36
10464;BME280;5279;42.048;24.638;2024-01-11T07:26:24;98296.50;;;2.70;80.19
10464;BME280;5279;42.048;24.638;2024-01-11T07:28:50;98292.56;;;2.79;77.37
10464;BME280;5279;42.048;24.638;2024-01-11T07:31:21;98286.09;;;3.02;79.96
10464;BME280;5279;42.048;24.638;2024-01-11T07:33:48;98289.91;;;3.12;76.09
10464;BME280;5279;42.048;24.638;2024-01-11T07:36:15;98285.25;;;3.01;76.94
10464;BME280;5279;42.048;24.638;2024-01-11T07:38:42;98289.63;;;2.85;77.57
10464;BME280;5279;42.048;24.638;2024-01-11T07:41:09;98283.25;;;3.06;77.63
10464;BME280;5279;42.048;24.638;2024-01-11T07:43:36;98273.13;;;3.16;79.13
10464;BME280;5279;42.048;24.638;2024-01-11T07:46:03;98266.25;;;3.13;77.46
10464;BME280;5279;42.048;24.638;2024-01-11T07:48:32;98254.38;;;3.39;78.17
10464;BME280;5279;42.048;24.638;2024-01-11T07:50:59;98255.97;;;3.73;76.15
10464;BME280;5279;42.048;24.638;2024-01-11T07:53:44;98268.84;;;4.07;73.71
10464;BME280;5279;42.048;24.638;2024-01-11T07:56:11;98254.44;;;4.14;69.70
10464;BME280;5279;42.048;24.638;2024-01-11T07:58:38;98258.25;;;4.38;70.51
10464;BME280;5279;42.048;24.638;2024-01-11T08:01:04;98256.78;;;4.63;69.69
10464;BME280;5279;42.048;24.638;2024-01-11T08:03:32;98259.06;;;4.83;68.70
10464;BME280;5279;42.048;24.638;2024-01-11T08:06:00;98254.06;;;4.92;66.67
10464;BME280;5279;42.048;24.638;2024-01-11T08:08:26;98249.56;;;4.80;67.41
10464;BME280;5279;42.048;24.638;2024-01-11T08:10:53;98242.94;;;4.89;68.66
10464;BME280;5279;42.048;24.638;2024-01-11T08:13:20;98232.25;;;4.92;69.21
10464;BME280;5279;42.048;24.638;2024-01-11T08:15:47;98238.16;;;5.10;66.82
10464;BME280;5279;42.048;24.638;2024-01-11T08:18:13;98231.13;;;5.10;66.86
10464;BME280;5279;42.048;24.638;2024-01-11T08:20:42;98234.75;;;5.22;65.14
10464;BME280;5279;42.048;24.638;2024-01-11T08:23:08;98223.34;;;5.49;65.12
10464;BME280;5279;42.048;24.638;2024-01-11T08:25:35;98228.28;;;5.81;62.21
10464;BME280;5279;42.048;24.638;2024-01-11T08:28:02;98227.38;;;6.09;60.03
10464;BME280;5279;42.048;24.638;2024-01-11T08:30:28;98224.03;;;6.19;60.52
10464;BME280;5279;42.048;24.638;2024-01-11T08:32:55;98222.19;;;6.46;61.22
10464;BME280;5279;42.048;24.638;2024-01-11T08:35:22;98228.38;;;6.45;60.86
10464;BME280;5279;42.048;24.638;2024-01-11T08:37:50;98218.81;;;6.82;60.55
10464;BME280;5279;42.048;24.638;2024-01-11T08:40:17;98213.97;;;6.89;60.55
10464;BME280;5279;42.048;24.638;2024-01-11T08:42:44;98210.09;;;7.18;61.31
10464;BME280;5279;42.048;24.638;2024-01-11T08:45:11;98210.25;;;7.04;61.78
10464;BME280;5279;42.048;24.638;2024-01-11T08:47:43;98195.75;;;7.35;59.60
10464;BME280;5279;42.048;24.638;2024-01-11T08:50:12;98201.22;;;7.32;58.82
10464;BME280;5279;42.048;24.638;2024-01-11T08:52:39;98193.56;;;7.52;58.43
10464;BME280;5279;42.048;24.638;2024-01-11T08:55:08;98192.56;;;7.90;57.54
10464;BME280;5279;42.048;24.638;2024-01-11T08:57:35;98198.56;;;8.61;55.22
10464;BME280;5279;42.048;24.638;2024-01-11T09:00:03;98193.78;;;8.89;53.40
10464;BME280;5279;42.048;24.638;2024-01-11T09:05:42;98174.84;;;10.23;49.63
10464;BME280;5279;42.048;24.638;2024-01-11T09:08:08;98156.47;;;11.13;48.14
10464;BME280;5279;42.048;24.638;2024-01-11T09:10:37;98148.13;;;11.95;45.71
10464;BME280;5279;42.048;24.638;2024-01-11T09:13:04;98154.84;;;11.80;44.33
10464;BME280;5279;42.048;24.638;2024-01-11T09:15:31;98151.44;;;12.55;42.99
10464;BME280;5279;42.048;24.638;2024-01-11T09:18:20;98137.53;;;12.71;42.74
10464;BME280;5279;42.048;24.638;2024-01-11T09:20:47;98132.75;;;13.21;40.99
10464;BME280;5279;42.048;24.638;2024-01-11T09:23:14;98135.09;;;13.51;40.58
10464;BME280;5279;42.048;24.638;2024-01-11T09:25:43;98130.91;;;13.66;39.53
10464;BME280;5279;42.048;24.638;2024-01-11T09:28:10;98140.59;;;14.02;39.08
10464;BME280;5279;42.048;24.638;2024-01-11T09:30:36;98129.09;;;14.63;39.24
10464;BME280;5279;42.048;24.638;2024-01-11T09:33:04;98124.72;;;15.13;37.44
10464;BME280;5279;42.048;24.638;2024-01-11T09:35:31;98117.41;;;15.23;36.70
10464;BME280;5279;42.048;24.638;2024-01-11T09:37:58;98116.41;;;15.66;36.33
10464;BME280;5279;42.048;24.638;2024-01-11T09:40:26;98113.94;;;15.89;34.99
10464;BME280;5279;42.048;24.638;2024-01-11T09:42:54;98101.25;;;16.31;33.71
10464;BME280;5279;42.048;24.638;2024-01-11T09:45:21;98092.19;;;16.57;33.71
10464;BME280;5279;42.048;24.638;2024-01-11T09:47:48;98084.88;;;16.59;33.86
10464;BME280;5279;42.048;24.638;2024-01-11T09:50:16;98070.66;;;17.44;32.64
10464;BME280;5279;42.048;24.638;2024-01-11T09:52:46;98066.59;;;18.01;32.05
10464;BME280;5279;42.048;24.638;2024-01-11T09:55:13;98063.59;;;18.19;30.97
10464;BME280;5279;42.048;24.638;2024-01-11T09:57:44;98069.50;;;18.67;30.82
10464;BME280;5279;42.048;24.638;2024-01-11T10:00:16;98053.94;;;19.06;30.02
10464;BME280;5279;42.048;24.638;2024-01-11T10:02:44;98049.56;;;19.34;29.84
10464;BME280;5279;42.048;24.638;2024-01-11T10:05:11;98045.09;;;19.98;29.17
10464;BME280;5279;42.048;24.638;2024-01-11T10:07:39;98036.06;;;20.55;27.63
10464;BME280;5279;42.048;24.638;2024-01-11T10:10:07;98031.38;;;21.04;27.77
10464;BME280;5279;42.048;24.638;2024-01-11T10:12:34;98031.78;;;21.42;26.74
10464;BME280;5279;42.048;24.638;2024-01-11T10:15:05;98031.66;;;21.70;26.85
10464;BME280;5279;42.048;24.638;2024-01-11T10:17:36;98013.44;;;22.05;26.31
10464;BME280;5279;42.048;24.638;2024-01-11T10:20:04;98014.06;;;21.20;26.37
10464;BME280;5279;42.048;24.638;2024-01-11T10:22:31;98013.78;;;20.33;28.66
10464;BME280;5279;42.048;24.638;2024-01-11T10:25:09;98006.78;;;20.80;27.56
10464;BME280;5279;42.048;24.638;2024-01-11T10:27:38;97996.97;;;21.00;26.81
10464;BME280;5279;42.048;24.638;2024-01-11T10:30:07;97994.16;;;20.46;27.26
10464;BME280;5279;42.048;24.638;2024-01-11T10:32:36;97993.97;;;20.82;27.07
10464;BME280;5279;42.048;24.638;2024-01-11T10:35:04;98000.47;;;21.48;26.29
10464;BME280;5279;42.048;24.638;2024-01-11T10:37:32;97986.06;;;21.88;26.37
10464;BME280;5279;42.048;24.638;2024-01-11T10:40:04;97987.34;;;21.32;26.33
10464;BME280;5279;42.048;24.638;2024-01-11T10:42:36;97980.97;;;21.39;26.56
10464;BME280;5279;42.048;24.638;2024-01-11T10:45:07;97974.63;;;21.93;26.06
10464;BME280;5279;42.048;24.638;2024-01-11T10:47:38;97973.53;;;21.54;25.88
10464;BME280;5279;42.048;24.638;2024-01-11T10:50:10;97969.47;;;21.98;26.06
10464;BME280;5279;42.048;24.638;2024-01-11T10:52:43;97957.19;;;22.15;25.91
10464;BME280;5279;42.048;24.638;2024-01-11T10:55:12;97950.75;;;21.90;25.98
10464;BME280;5279;42.048;24.638;2024-01-11T10:57:39;97943.28;;;22.18;25.38
10464;BME280;5279;42.048;24.638;2024-01-11T11:00:07;97945.66;;;22.72;24.82
10464;BME280;5279;42.048;24.638;2024-01-11T11:02:38;97934.28;;;23.08;24.52
10464;BME280;5279;42.048;24.638;2024-01-11T11:05:07;97939.06;;;23.50;24.01
10464;BME280;5279;42.048;24.638;2024-01-11T11:07:35;97934.53;;;23.44;24.23
10464;BME280;5279;42.048;24.638;2024-01-11T11:10:05;97921.59;;;23.77;24.03
10464;BME280;5279;42.048;24.638;2024-01-11T11:12:32;97919.13;;;24.01;23.77
10464;BME280;5279;42.048;24.638;2024-01-11T11:15:01;97910.31;;;23.80;24.20
10464;BME280;5279;42.048;24.638;2024-01-11T11:20:39;97896.09;;;24.16;23.25
10464;BME280;5279;42.048;24.638;2024-01-11T11:23:07;97902.81;;;24.50;23.08
10464;BME280;5279;42.048;24.638;2024-01-11T11:25:35;97903.13;;;25.26;22.45
10464;BME280;5279;42.048;24.638;2024-01-11T11:28:03;97901.91;;;26.05;22.44
10464;BME280;5279;42.048;24.638;2024-01-11T11:30:30;97899.16;;;25.70;22.22
10464;BME280;5279;42.048;24.638;2024-01-11T11:32:57;97887.44;;;25.58;21.88
10464;BME280;5279;42.048;24.638;2024-01-11T11:35:25;97880.44;;;26.15;21.27
10464;BME280;5279;42.048;24.638;2024-01-11T11:37:57;97882.19;;;26.56;20.94
10464;BME280;5279;42.048;24.638;2024-01-11T11:40:32;97876.03;;;25.79;21.58
10464;BME280;5279;42.048;24.638;2024-01-11T11:43:04;97871.31;;;26.33;21.00
10464;BME280;5279;42.048;24.638;2024-01-11T11:45:32;97861.78;;;26.82;20.47
10464;BME280;5279;42.048;24.638;2024-01-11T11:47:58;97858.25;;;27.09;20.88
10464;BME280;5279;42.048;24.638;2024-01-11T11:50:26;97846.66;;;26.23;20.61
10464;BME280;5279;42.048;24.638;2024-01-11T11:52:57;97847.72;;;26.22;20.75
10464;BME280;5279;42.048;24.638;2024-01-11T11:55:24;97842.97;;;26.92;20.58
10464;BME280;5279;42.048;24.638;2024-01-11T11:57:51;97833.28;;;27.12;20.08
10464;BME280;5279;42.048;24.638;2024-01-11T12:00:19;97827.94;;;27.62;19.73
10464;BME280;5279;42.048;24.638;2024-01-11T12:02:46;97817.84;;;27.30;20.17
10464;BME280;5279;42.048;24.638;2024-01-11T12:05:14;97816.59;;;27.37;19.78
10464;BME280;5279;42.048;24.638;2024-01-11T12:07:40;97816.09;;;27.24;19.93
10464;BME280;5279;42.048;24.638;2024-01-11T12:10:09;97806.81;;;27.53;19.61
10464;BME280;5279;42.048;24.638;2024-01-11T12:12:38;97806.53;;;27.38;19.66
10464;BME280;5279;42.048;24.638;2024-01-11T12:15:07;97790.34;;;28.36;19.06
10464;BME280;5279;42.048;24.638;2024-01-11T12:17:34;97794.91;;;28.52;18.67
10464;BME280;5279;42.048;24.638;2024-01-11T12:20:01;97790.03;;;28.76;18.62
10464;BME280;5279;42.048;24.638;2024-01-11T12:22:28;97778.00;;;29.25;18.40
10464;BME280;5279;42.048;24.638;2024-01-11T12:24:55;97776.03;;;29.48;18.18
10464;BME280;5279;42.048;24.638;2024-01-11T12:27:24;97778.63;;;29.33;18.15
10464;BME280;5279;42.048;24.638;2024-01-11T12:29:52;97768.59;;;29.11;17.89
10464;BME280;5279;42.048;24.638;2024-01-11T12:32:19;97771.00;;;29.08;17.92
10464;BME280;5279;42.048;24.638;2024-01-11T12:34:46;97767.28;;;28.92;18.46
10464;BME280;5279;42.048;24.638;2024-01-11T12:37:16;97764.91;;;28.74;18.47
10464;BME280;5279;42.048;24.638;2024-01-11T12:39:42;97763.25;;;28.73;18.33
10464;BME280;5279;42.048;24.638;2024-01-11T12:42:09;97750.19;;;29.28;18.02
10464;BME280;5279;42.048;24.638;2024-01-11T12:44:37;97745.72;;;29.17;17.92
10464;BME280;5279;42.048;24.638;2024-01-11T12:47:07;97746.44;;;29.40;17.66
10464;BME280;5279;42.048;24.638;2024-01-11T12:49:34;97736.53;;;29.60;17.40
10464;BME280;5279;42.048;24.638;2024-01-11T12:52:01;97743.25;;;29.48;17.60
10464;BME280;5279;42.048;24.638;2024-01-11T12:54:27;97744.53;;;29.35;17.87
10464;BME280;5279;42.048;24.638;2024-01-11T12:56:59;97733.09;;;29.80;17.39
10464;BME280;5279;42.048;24.638;2024-01-11T12:59:27;97733.22;;;29.95;17.21
10464;BME280;5279;42.048;24.638;2024-01-11T13:01:56;97742.91;;;29.76;17.38
10464;BME280;5279;42.048;24.638;2024-01-11T13:04:25;97740.72;;;29.78;17.25
10464;BME280;5279;42.048;24.638;2024-01-11T13:06:51;97740.44;;;29.79;17.15